sensor_id;sensor_type;location;lat;lon;timestamp;pressure;altitude;pressure_sealevel;temperature
73673;BMP280;61972;19.480;-99.240;2023-01-24T00:00:43;77410.69;;;28.32
73673;BMP280;61972;19.480;-99.240;2023-01-24T00:03:10;77417.47;;;28.31
73673;BMP280;61972;19.480;-99.240;2023-01-24T00:05:40;77421.19;;;28.32
73673;BMP280;61972;19.480;-99.240;2023-01-24T00:08:06;77423.00;;;28.36
73673;BMP280;61972;19.480;-99.240;2023-01-24T00:10:32;77420.38;;;28.36
73673;BMP280;61972;19.480;-99.240;2023-01-24T00:12:58;77433.63;;;28.39
73673;BMP280;61972;19.480;-99.240;2023-01-24T00:15:24;77434.88;;;28.42
73673;BMP280;61972;19.480;-99.240;2023-01-24T00:17:52;77437.63;;;28.45
73673;BMP280;61972;19.480;-99.240;2023-01-24T00:20:18;77437.63;;;28.45
73673;BMP280;61972;19.480;-99.240;2023-01-24T00:22:45;77444.94;;;28.44
73673;BMP280;61972;19.480;-99.240;2023-01-24T00:25:11;77442.31;;;28.44
73673;BMP280;61972;19.480;-99.240;2023-01-24T00:27:37;77446.06;;;28.45
73673;BMP280;61972;19.480;-99.240;2023-01-24T00:30:04;77436.53;;;28.44
73673;BMP280;61972;19.480;-99.240;2023-01-24T00:32:31;77441.22;;;28.43
73673;BMP280;61972;19.480;-99.240;2023-01-24T00:34:58;77440.13;;;28.42
73673;BMP280;61972;19.480;-99.240;2023-01-24T00:37:25;77445.94;;;28.43
73673;BMP280;61972;19.480;-99.240;2023-01-24T00:39:51;77445.94;;;28.43
73673;BMP280;61972;19.480;-99.240;2023-01-24T00:42:17;77442.75;;;28.42
73673;BMP280;61972;19.480;-99.240;2023-01-24T00:44:43;77449.13;;;28.43
73673;BMP280;61972;19.480;-99.240;2023-01-24T00:47:09;77448.00;;;28.42
73673;BMP280;61972;19.480;-99.240;2023-01-24T00:49:36;77449.13;;;28.43
73673;BMP280;61972;19.480;-99.240;2023-01-24T00:52:02;77457.00;;;28.43
73673;BMP280;61972;19.480;-99.240;2023-01-24T00:54:28;77464.88;;;28.43
73673;BMP280;61972;19.480;-99.240;2023-01-24T00:56:54;77464.88;;;28.43
73673;BMP280;61972;19.480;-99.240;2023-01-24T00:59:29;77468.59;;;28.44
73673;BMP280;61972;19.480;-99.240;2023-01-24T01:02:16;77471.78;;;28.45
73673;BMP280;61972;19.480;-99.240;2023-01-24T01:04:48;77463.50;;;28.47
73673;BMP280;61972;19.480;-99.240;2023-01-24T01:07:41;77469.56;;;28.53
73673;BMP280;61972;19.480;-99.240;2023-01-24T01:10:18;77487.41;;;28.62
73673;BMP280;61972;19.480;-99.240;2023-01-24T01:12:44;77485.28;;;28.72
73673;BMP280;61972;19.480;-99.240;2023-01-24T01:15:17;77490.09;;;28.84
73673;BMP280;61972;19.480;-99.240;2023-01-24T01:17:43;77492.94;;;28.99
73673;BMP280;61972;19.480;-99.240;2023-01-24T01:20:25;77498.97;;;29.14
73673;BMP280;61972;19.480;-99.240;2023-01-24T01:23:04;77506.66;;;29.31
73673;BMP280;61972;19.480;-99.240;2023-01-24T01:25:39;77508.53;;;29.48
73673;BMP280;61972;19.480;-99.240;2023-01-24T01:28:08;77519.25;;;29.63
73673;BMP280;61972;19.480;-99.240;2023-01-24T01:30:34;77530.53;;;29.78
73673;BMP280;61972;19.480;-99.240;2023-01-24T01:33:00;77534.31;;;29.91
73673;BMP280;61972;19.480;-99.240;2023-01-24T01:35:26;77532.31;;;30.04
73673;BMP280;61972;19.480;-99.240;2023-01-24T01:37:53;77536.63;;;30.18
73673;BMP280;61972;19.480;-99.240;2023-01-24T01:40:19;77544.03;;;30.30
73673;BMP280;61972;19.480;-99.240;2023-01-24T01:42:53;77551.44;;;30.42
73673;BMP280;61972;19.480;-99.240;2023-01-24T01:47:55;77559.41;;;30.66
73673;BMP280;61972;19.480;-99.240;2023-01-24T01:50:34;77570.03;;;30.79
73673;BMP280;61972;19.480;-99.240;2023-01-24T01:53:03;77569.38;;;30.88
73673;BMP280;61972;19.480;-99.240;2023-01-24T01:55:33;77577.22;;;30.98
73673;BMP280;61972;19.480;-99.240;2023-01-24T01:58:00;77582.81;;;31.05
73673;BMP280;61972;19.480;-99.240;2023-01-24T02:00:26;77586.91;;;31.14
73673;BMP280;61972;19.480;-99.240;2023-01-24T02:03:08;77594.06;;;31.21
73673;BMP280;61972;19.480;-99.240;2023-01-24T02:05:53;77591.09;;;31.25
73673;BMP280;61972;19.480;-99.240;2023-01-24T02:08:23;77606.50;;;31.27
73673;BMP280;61972;19.480;-99.240;2023-01-24T02:10:52;77604.00;;;31.30
73673;BMP280;61972;19.480;-99.240;2023-01-24T02:13:40;77609.63;;;31.38
73673;BMP280;61972;19.480;-99.240;2023-01-24T02:16:11;77610.59;;;31.36
73673;BMP280;61972;19.480;-99.240;2023-01-24T02:19:08;77619.41;;;31.32
73673;BMP280;61972;19.480;-99.240;2023-01-24T02:30:49;77638.63;;;30.79
73673;BMP280;61972;19.480;-99.240;2023-01-24T02:33:18;77643.28;;;30.66
73673;BMP280;61972;19.480;-99.240;2023-01-24T02:35:46;77644.88;;;30.55
73673;BMP280;61972;19.480;-99.240;2023-01-24T02:40:53;77652.06;;;30.40
73673;BMP280;61972;19.480;-99.240;2023-01-24T02:43:27;77650.28;;;30.35
73673;BMP280;61972;19.480;-99.240;2023-01-24T02:45:54;77654.44;;;30.34
73673;BMP280;61972;19.480;-99.240;2023-01-24T02:48:20;77661.28;;;30.33
73673;BMP280;61972;19.480;-99.240;2023-01-24T02:50:46;77660.16;;;30.32
73673;BMP280;61972;19.480;-99.240;2023-01-24T02:53:30;77663.63;;;30.28
73673;BMP280;61972;19.480;-99.240;2023-01-24T02:56:02;77663.41;;;30.23
73673;BMP280;61972;19.480;-99.240;2023-01-24T02:58:47;77658.31;;;30.16
73673;BMP280;61972;19.480;-99.240;2023-01-24T03:01:14;77660.13;;;30.10
73673;BMP280;61972;19.480;-99.240;2023-01-24T03:03:42;77662.53;;;30.05
73673;BMP280;61972;19.480;-99.240;2023-01-24T03:06:09;77664.34;;;30.00
73673;BMP280;61972;19.480;-99.240;2023-01-24T03:08:36;77662.97;;;29.93
73673;BMP280;61972;19.480;-99.240;2023-01-24T03:11:03;77666.88;;;29.87
73673;BMP280;61972;19.480;-99.240;2023-01-24T03:13:30;77669.41;;;29.85
73673;BMP280;61972;19.480;-99.240;2023-01-24T03:16:16;77668.31;;;29.84
73673;BMP280;61972;19.480;-99.240;2023-01-24T03:19:01;77679.38;;;29.84
73673;BMP280;61972;19.480;-99.240;2023-01-24T03:21:45;77672.72;;;29.88
73673;BMP280;61972;19.480;-99.240;2023-01-24T03:24:30;77670.78;;;29.91
73673;BMP280;61972;19.480;-99.240;2023-01-24T03:27:14;77678.91;;;29.96
73673;BMP280;61972;19.480;-99.240;2023-01-24T03:30:00;77674.91;;;30.00
73673;BMP280;61972;19.480;-99.240;2023-01-24T03:32:45;77680.16;;;30.00
73673;BMP280;61972;19.480;-99.240;2023-01-24T03:35:29;77677.97;;;29.97
73673;BMP280;61972;19.480;-99.240;2023-01-24T03:37:56;77677.38;;;29.97
73673;BMP280;61972;19.480;-99.240;2023-01-24T03:40:40;77682.13;;;29.96
73673;BMP280;61972;19.480;-99.240;2023-01-24T03:43:06;77682.53;;;29.94
73673;BMP280;61972;19.480;-99.240;2023-01-24T03:45:35;77677.16;;;29.92
73673;BMP280;61972;19.480;-99.240;2023-01-24T03:48:05;77673.25;;;29.88
73673;BMP280;61972;19.480;-99.240;2023-01-24T03:50:37;77684.66;;;29.84
73673;BMP280;61972;19.480;-99.240;2023-01-24T03:53:24;77693.84;;;29.78
73673;BMP280;61972;19.480;-99.240;2023-01-24T03:55:55;77691.06;;;29.75
73673;BMP280;61972;19.480;-99.240;2023-01-24T03:58:22;77695.34;;;29.77
73673;BMP280;61972;19.480;-99.240;2023-01-24T04:00:48;77695.50;;;29.80
73673;BMP280;61972;19.480;-99.240;2023-01-24T04:03:15;77698.25;;;29.82
73673;BMP280;61972;19.480;-99.240;2023-01-24T04:05:41;77693.09;;;29.85
73673;BMP280;61972;19.480;-99.240;2023-01-24T04:08:07;77694.34;;;29.88
73673;BMP280;61972;19.480;-99.240;2023-01-24T04:10:33;77692.81;;;29.89
73673;BMP280;61972;19.480;-99.240;2023-01-24T04:12:59;77697.66;;;29.91
73673;BMP280;61972;19.480;-99.240;2023-01-24T04:15:30;77699.88;;;29.93
73673;BMP280;61972;19.480;-99.240;2023-01-24T04:17:58;77699.47;;;29.95
73673;BMP280;61972;19.480;-99.240;2023-01-24T04:20:26;77706.94;;;29.97
73673;BMP280;61972;19.480;-99.240;2023-01-24T04:22:53;77711.78;;;30.00
73673;BMP280;61972;19.480;-99.240;2023-01-24T04:25:20;77704.00;;;30.02
73673;BMP280;61972;19.480;-99.240;2023-01-24T04:27:46;77702.59;;;30.06
73673;BMP280;61972;19.480;-99.240;2023-01-24T04:30:14;77700.97;;;30.04
73673;BMP280;61972;19.480;-99.240;2023-01-24T04:32:41;77707.59;;;30.01
73673;BMP280;61972;19.480;-99.240;2023-01-24T04:35:09;77706.25;;;29.94
73673;BMP280;61972;19.480;-99.240;2023-01-24T04:37:35;77703.75;;;29.87
73673;BMP280;61972;19.480;-99.240;2023-01-24T04:40:01;77706.03;;;29.80
73673;BMP280;61972;19.480;-99.240;2023-01-24T04:42:28;77704.09;;;29.73
73673;BMP280;61972;19.480;-99.240;2023-01-24T04:44:54;77699.00;;;29.66
73673;BMP280;61972;19.480;-99.240;2023-01-24T04:47:20;77702.34;;;29.59
73673;BMP280;61972;19.480;-99.240;2023-01-24T04:49:46;77705.00;;;29.49
73673;BMP280;61972;19.480;-99.240;2023-01-24T04:52:13;77694.06;;;29.42
73673;BMP280;61972;19.480;-99.240;2023-01-24T04:54:40;77694.75;;;29.35
73673;BMP280;61972;19.480;-99.240;2023-01-24T04:57:06;77697.56;;;29.28
73673;BMP280;61972;19.480;-99.240;2023-01-24T04:59:33;77697.56;;;29.18
73673;BMP280;61972;19.480;-99.240;2023-01-24T05:01:59;77696.47;;;29.07
73673;BMP280;61972;19.480;-99.240;2023-01-24T05:04:25;77694.38;;;28.98
73673;BMP280;61972;19.480;-99.240;2023-01-24T05:06:51;77692.88;;;28.89
73673;BMP280;61972;19.480;-99.240;2023-01-24T05:09:17;77686.66;;;28.81
73673;BMP280;61972;19.480;-99.240;2023-01-24T05:11:43;77688.31;;;28.73
73673;BMP280;61972;19.480;-99.240;2023-01-24T05:14:10;77686.22;;;28.63
73673;BMP280;61972;19.480;-99.240;2023-01-24T05:16:36;77688.44;;;28.56
73673;BMP280;61972;19.480;-99.240;2023-01-24T05:19:03;77694.38;;;28.49
73673;BMP280;61972;19.480;-99.240;2023-01-24T05:21:29;77685.50;;;28.41
73673;BMP280;61972;19.480;-99.240;2023-01-24T05:23:55;77690.22;;;28.31
73673;BMP280;61972;19.480;-99.240;2023-01-24T05:26:23;77690.91;;;28.24
73673;BMP280;61972;19.480;-99.240;2023-01-24T05:28:51;77693.63;;;28.17
73673;BMP280;61972;19.480;-99.240;2023-01-24T05:31:17;77688.50;;;28.10
73673;BMP280;61972;19.480;-99.240;2023-01-24T05:33:44;77692.78;;;28.01
73673;BMP280;61972;19.480;-99.240;2023-01-24T05:36:13;77688.34;;;27.97
73673;BMP280;61972;19.480;-99.240;2023-01-24T05:38:41;77692.19;;;27.91
73673;BMP280;61972;19.480;-99.240;2023-01-24T05:41:10;77696.19;;;27.87
73673;BMP280;61972;19.480;-99.240;2023-01-24T05:43:36;77692.72;;;27.82
73673;BMP280;61972;19.480;-99.240;2023-01-24T05:46:06;77695.19;;;27.79
73673;BMP280;61972;19.480;-99.240;2023-01-24T05:48:32;77689.09;;;27.74
73673;BMP280;61972;19.480;-99.240;2023-01-24T05:51:00;77688.41;;;27.70
73673;BMP280;61972;19.480;-99.240;2023-01-24T05:53:28;77682.03;;;27.69
73673;BMP280;61972;19.480;-99.240;2023-01-24T05:55:59;77674.97;;;27.65
73673;BMP280;61972;19.480;-99.240;2023-01-24T05:58:26;77681.19;;;27.64
73673;BMP280;61972;19.480;-99.240;2023-01-24T06:00:52;77677.84;;;27.61
73673;BMP280;61972;19.480;-99.240;2023-01-24T06:03:19;77680.34;;;27.58
73673;BMP280;61972;19.480;-99.240;2023-01-24T06:05:47;77674.94;;;27.56
73673;BMP280;61972;19.480;-99.240;2023-01-24T06:08:14;77678.91;;;27.52
73673;BMP280;61972;19.480;-99.240;2023-01-24T06:10:41;77670.91;;;27.49
73673;BMP280;61972;19.480;-99.240;2023-01-24T06:13:07;77665.50;;;27.47
73673;BMP280;61972;19.480;-99.240;2023-01-24T06:15:33;77658.03;;;27.45
73673;BMP280;61972;19.480;-99.240;2023-01-24T06:17:59;77662.59;;;27.42
73673;BMP280;61972;19.480;-99.240;2023-01-24T06:20:25;77661.88;;;27.39
73673;BMP280;61972;19.480;-99.240;2023-01-24T06:22:54;77662.28;;;27.37
73673;BMP280;61972;19.480;-99.240;2023-01-24T06:25:23;77662.13;;;27.34
73673;BMP280;61972;19.480;-99.240;2023-01-24T06:27:50;77661.00;;;27.33
73673;BMP280;61972;19.480;-99.240;2023-01-24T06:30:18;77664.63;;;27.31
73673;BMP280;61972;19.480;-99.240;2023-01-24T06:36:06;77664.28;;;27.26
73673;BMP280;61972;19.480;-99.240;2023-01-24T06:38:34;77665.81;;;27.25
73673;BMP280;61972;19.480;-99.240;2023-01-24T06:41:02;77666.22;;;27.23
73673;BMP280;61972;19.480;-99.240;2023-01-24T06:43:28;77660.41;;;27.23
73673;BMP280;61972;19.480;-99.240;2023-01-24T06:45:55;77665.13;;;27.22
73673;BMP280;61972;19.480;-99.240;2023-01-24T06:48:21;77655.16;;;27.23
73673;BMP280;61972;19.480;-99.240;2023-01-24T06:50:47;77653.53;;;27.21
73673;BMP280;61972;19.480;-99.240;2023-01-24T06:53:14;77653.53;;;27.21
73673;BMP280;61972;19.480;-99.240;2023-01-24T06:55:44;77654.47;;;27.20
73673;BMP280;61972;19.480;-99.240;2023-01-24T06:58:10;77654.88;;;27.18
73673;BMP280;61972;19.480;-99.240;2023-01-24T07:00:36;77653.78;;;27.17
73673;BMP280;61972;19.480;-99.240;2023-01-24T07:03:05;77648.38;;;27.14
73673;BMP280;61972;19.480;-99.240;2023-01-24T07:05:35;77646.72;;;27.12
73673;BMP280;61972;19.480;-99.240;2023-01-24T07:08:02;77646.00;;;27.09
73673;BMP280;61972;19.480;-99.240;2023-01-24T07:10:28;77652.63;;;27.06
73673;BMP280;61972;19.480;-99.240;2023-01-24T07:12:55;77649.28;;;27.03
73673;BMP280;61972;19.480;-99.240;2023-01-24T07:15:21;77650.25;;;27.01
73673;BMP280;61972;19.480;-99.240;2023-01-24T07:17:48;77646.38;;;26.98
73673;BMP280;61972;19.480;-99.240;2023-01-24T07:20:14;77653.09;;;26.97
73673;BMP280;61972;19.480;-99.240;2023-01-24T07:22:41;77653.50;;;26.94
73673;BMP280;61972;19.480;-99.240;2023-01-24T07:25:16;77648.69;;;26.92
73673;BMP280;61972;19.480;-99.240;2023-01-24T07:27:43;77651.69;;;26.90
73673;BMP280;61972;19.480;-99.240;2023-01-24T07:30:11;77646.84;;;26.88
73673;BMP280;61972;19.480;-99.240;2023-01-24T07:32:38;77645.72;;;26.87
73673;BMP280;61972;19.480;-99.240;2023-01-24T07:35:06;77642.00;;;26.86
73673;BMP280;61972;19.480;-99.240;2023-01-24T07:37:32;77640.34;;;26.85
73673;BMP280;61972;19.480;-99.240;2023-01-24T07:39:59;77650.28;;;26.84
73673;BMP280;61972;19.480;-99.240;2023-01-24T07:42:25;77649.19;;;26.83
73673;BMP280;61972;19.480;-99.240;2023-01-24T07:44:51;77651.81;;;26.83
73673;BMP280;61972;19.480;-99.240;2023-01-24T07:47:20;77648.06;;;26.82
73673;BMP280;61972;19.480;-99.240;2023-01-24T07:49:46;77656.88;;;26.81
73673;BMP280;61972;19.480;-99.240;2023-01-24T07:52:12;77647.91;;;26.80
73673;BMP280;61972;19.480;-99.240;2023-01-24T07:54:38;77648.88;;;26.78
73673;BMP280;61972;19.480;-99.240;2023-01-24T07:57:04;77649.41;;;26.79
73673;BMP280;61972;19.480;-99.240;2023-01-24T07:59:31;77644.75;;;26.79
73673;BMP280;61972;19.480;-99.240;2023-01-24T08:01:57;77644.16;;;26.79
73673;BMP280;61972;19.480;-99.240;2023-01-24T08:04:23;77642.50;;;26.77
73673;BMP280;61972;19.480;-99.240;2023-01-24T08:06:49;77635.63;;;26.75
73673;BMP280;61972;19.480;-99.240;2023-01-24T08:09:33;77639.16;;;26.74
73673;BMP280;61972;19.480;-99.240;2023-01-24T08:11:59;77633.91;;;26.74
73673;BMP280;61972;19.480;-99.240;2023-01-24T08:14:25;77632.28;;;26.72
73673;BMP280;61972;19.480;-99.240;2023-01-24T08:16:51;77628.00;;;26.71
73673;BMP280;61972;19.480;-99.240;2023-01-24T08:19:17;77632.66;;;26.70
73673;BMP280;61972;19.480;-99.240;2023-01-24T08:21:43;77624.28;;;26.70
73673;BMP280;61972;19.480;-99.240;2023-01-24T08:24:10;77628.41;;;26.69
73673;BMP280;61972;19.480;-99.240;2023-01-24T08:26:36;77627.28;;;26.68
73673;BMP280;61972;19.480;-99.240;2023-01-24T08:29:02;77623.53;;;26.67
73673;BMP280;61972;19.480;-99.240;2023-01-24T08:31:28;77616.63;;;26.65
73673;BMP280;61972;19.480;-99.240;2023-01-24T08:33:54;77612.91;;;26.64
73673;BMP280;61972;19.480;-99.240;2023-01-24T08:36:20;77621.72;;;26.63
73673;BMP280;61972;19.480;-99.240;2023-01-24T08:38:46;77614.44;;;26.63
73673;BMP280;61972;19.480;-99.240;2023-01-24T08:41:12;77610.13;;;26.62
73673;BMP280;61972;19.480;-99.240;2023-01-24T08:43:38;77611.63;;;26.61
73673;BMP280;61972;19.480;-99.240;2023-01-24T08:46:05;77603.22;;;26.60
73673;BMP280;61972;19.480;-99.240;2023-01-24T08:48:31;77609.41;;;26.58
73673;BMP280;61972;19.480;-99.240;2023-01-24T08:50:57;77598.94;;;26.58
73673;BMP280;61972;19.480;-99.240;2023-01-24T08:53:23;77605.69;;;26.57
73673;BMP280;61972;19.480;-99.240;2023-01-24T08:55:49;77603.50;;;26.55
73673;BMP280;61972;19.480;-99.240;2023-01-24T08:58:16;77603.50;;;26.55
73673;BMP280;61972;19.480;-99.240;2023-01-24T09:00:42;77607.63;;;26.54
73673;BMP280;61972;19.480;-99.240;2023-01-24T09:03:10;77605.94;;;26.53
73673;BMP280;61972;19.480;-99.240;2023-01-24T09:05:37;77608.56;;;26.53
73673;BMP280;61972;19.480;-99.240;2023-01-24T09:08:04;77604.81;;;26.52
73673;BMP280;61972;19.480;-99.240;2023-01-24T09:10:31;77605.41;;;26.52
73673;BMP280;61972;19.480;-99.240;2023-01-24T09:12:57;77600.69;;;26.53
73673;BMP280;61972;19.480;-99.240;2023-01-24T09:15:23;77605.78;;;26.50
73673;BMP280;61972;19.480;-99.240;2023-01-24T09:17:49;77600.00;;;26.50
73673;BMP280;61972;19.480;-99.240;2023-01-24T09:20:16;77601.50;;;26.49
73673;BMP280;61972;19.480;-99.240;2023-01-24T09:22:42;77604.53;;;26.47
73673;BMP280;61972;19.480;-99.240;2023-01-24T09:25:08;77605.47;;;26.45
73673;BMP280;61972;19.480;-99.240;2023-01-24T09:27:35;77610.03;;;26.42
73673;BMP280;61972;19.480;-99.240;2023-01-24T09:30:03;77605.16;;;26.40
73673;BMP280;61972;19.480;-99.240;2023-01-24T09:32:30;77607.25;;;26.39
73673;BMP280;61972;19.480;-99.240;2023-01-24T09:34:56;77604.44;;;26.37
73673;BMP280;61972;19.480;-99.240;2023-01-24T09:37:23;77608.59;;;26.36
73673;BMP280;61972;19.480;-99.240;2023-01-24T09:39:49;77604.31;;;26.34
73673;BMP280;61972;19.480;-99.240;2023-01-24T09:42:38;77610.50;;;26.33
73673;BMP280;61972;19.480;-99.240;2023-01-24T09:45:29;77603.59;;;26.31
73673;BMP280;61972;19.480;-99.240;2023-01-24T09:47:59;77601.38;;;26.29
73673;BMP280;61972;19.480;-99.240;2023-01-24T09:50:34;77599.72;;;26.28
73673;BMP280;61972;19.480;-99.240;2023-01-24T09:53:05;77598.59;;;26.27
73673;BMP280;61972;19.480;-99.240;2023-01-24T09:55:41;77599.00;;;26.25
73673;BMP280;61972;19.480;-99.240;2023-01-24T10:00:52;77605.19;;;26.23
73673;BMP280;61972;19.480;-99.240;2023-01-24T10:03:20;77604.09;;;26.22
73673;BMP280;61972;19.480;-99.240;2023-01-24T10:05:52;77603.38;;;26.19
73673;BMP280;61972;19.480;-99.240;2023-01-24T10:25:27;77609.41;;;25.98
73673;BMP280;61972;19.480;-99.240;2023-01-24T10:27:54;77601.63;;;25.91
73673;BMP280;61972;19.480;-99.240;2023-01-24T10:30:30;77602.66;;;25.82
73673;BMP280;61972;19.480;-99.240;2023-01-24T10:33:03;77610.41;;;25.72
73673;BMP280;61972;19.480;-99.240;2023-01-24T10:35:36;77614.22;;;25.66
73673;BMP280;61972;19.480;-99.240;2023-01-24T10:38:06;77610.53;;;25.58
73673;BMP280;61972;19.480;-99.240;2023-01-24T10:41:04;77603.19;;;25.49
73673;BMP280;61972;19.480;-99.240;2023-01-24T10:43:34;77610.53;;;25.41
73673;BMP280;61972;19.480;-99.240;2023-01-24T10:49:00;77594.44;;;25.26
73673;BMP280;61972;19.480;-99.240;2023-01-24T10:51:27;77602.31;;;25.19
73673;BMP280;61972;19.480;-99.240;2023-01-24T10:54:00;77596.19;;;25.13
73673;BMP280;61972;19.480;-99.240;2023-01-24T10:56:28;77595.31;;;25.07
73673;BMP280;61972;19.480;-99.240;2023-01-24T10:59:08;77604.31;;;25.01
73673;BMP280;61972;19.480;-99.240;2023-01-24T11:01:42;77594.47;;;24.95
73673;BMP280;61972;19.480;-99.240;2023-01-24T11:04:24;77590.41;;;24.88
73673;BMP280;61972;19.480;-99.240;2023-01-24T11:06:51;77592.69;;;24.83
73673;BMP280;61972;19.480;-99.240;2023-01-24T11:09:22;77602.25;;;24.78
73673;BMP280;61972;19.480;-99.240;2023-01-24T11:11:54;77605.66;;;24.73
73673;BMP280;61972;19.480;-99.240;2023-01-24T11:14:24;77606.44;;;24.69
73673;BMP280;61972;19.480;-99.240;2023-01-24T11:16:53;77612.97;;;24.66
73673;BMP280;61972;19.480;-99.240;2023-01-24T11:21:53;77625.53;;;24.58
73673;BMP280;61972;19.480;-99.240;2023-01-24T11:24:20;77619.94;;;24.53
73673;BMP280;61972;19.480;-99.240;2023-01-24T11:27:03;77629.66;;;24.50
73673;BMP280;61972;19.480;-99.240;2023-01-24T11:29:31;77625.22;;;24.46
73673;BMP280;61972;19.480;-99.240;2023-01-24T11:34:44;77626.75;;;24.37
73673;BMP280;61972;19.480;-99.240;2023-01-24T11:37:59;77633.69;;;24.32
73673;BMP280;61972;19.480;-99.240;2023-01-24T11:40:39;77635.00;;;24.28
73673;BMP280;61972;19.480;-99.240;2023-01-24T11:48:56;77642.88;;;24.21
73673;BMP280;61972;19.480;-99.240;2023-01-24T11:54:33;77648.69;;;24.14
73673;BMP280;61972;19.480;-99.240;2023-01-24T11:59:41;77650.38;;;24.09
73673;BMP280;61972;19.480;-99.240;2023-01-24T12:10:21;77655.47;;;23.99
73673;BMP280;61972;19.480;-99.240;2023-01-24T12:13:03;77656.75;;;23.95
73673;BMP280;61972;19.480;-99.240;2023-01-24T12:21:09;77656.78;;;23.88
73673;BMP280;61972;19.480;-99.240;2023-01-24T12:26:19;77659.59;;;23.84
73673;BMP280;61972;19.480;-99.240;2023-01-24T12:28:57;77659.44;;;23.81
73673;BMP280;61972;19.480;-99.240;2023-01-24T12:34:44;77662.78;;;23.77
73673;BMP280;61972;19.480;-99.240;2023-01-24T12:37:33;77655.34;;;23.75
73673;BMP280;61972;19.480;-99.240;2023-01-24T12:40:02;77654.22;;;23.74
73673;BMP280;61972;19.480;-99.240;2023-01-24T12:45:09;77659.09;;;23.69
73673;BMP280;61972;19.480;-99.240;2023-01-24T12:47:42;77662.63;;;23.67
73673;BMP280;61972;19.480;-99.240;2023-01-24T12:53:18;77663.34;;;23.63
73673;BMP280;61972;19.480;-99.240;2023-01-24T12:56:21;77672.50;;;23.59
73673;BMP280;61972;19.480;-99.240;2023-01-24T12:58:49;77663.56;;;23.58
73673;BMP280;61972;19.480;-99.240;2023-01-24T13:01:30;77665.44;;;23.55
73673;BMP280;61972;19.480;-99.240;2023-01-24T13:04:19;77670.47;;;23.53
73673;BMP280;61972;19.480;-99.240;2023-01-24T13:12:36;77678.47;;;23.48
73673;BMP280;61972;19.480;-99.240;2023-01-24T13:15:16;77671.03;;;23.46
73673;BMP280;61972;19.480;-99.240;2023-01-24T13:23:00;77683.72;;;23.41
73673;BMP280;61972;19.480;-99.240;2023-01-24T13:36:16;77704.00;;;23.33
73673;BMP280;61972;19.480;-99.240;2023-01-24T13:38:44;77702.34;;;23.32
73673;BMP280;61972;19.480;-99.240;2023-01-24T13:41:37;77710.50;;;23.30
73673;BMP280;61972;19.480;-99.240;2023-01-24T13:49:17;77719.66;;;23.26
73673;BMP280;61972;19.480;-99.240;2023-01-24T13:51:50;77728.41;;;23.24
73673;BMP280;61972;19.480;-99.240;2023-01-24T14:07:57;77744.22;;;23.13
73673;BMP280;61972;19.480;-99.240;2023-01-24T14:10:37;77754.09;;;23.12
73673;BMP280;61972;19.480;-99.240;2023-01-24T14:13:05;77749.25;;;23.10
73673;BMP280;61972;19.480;-99.240;2023-01-24T14:15:50;77748.13;;;23.09
73673;BMP280;61972;19.480;-99.240;2023-01-24T14:18:48;77752.03;;;23.05
73673;BMP280;61972;19.480;-99.240;2023-01-24T14:21:18;77748.88;;;23.05
73673;BMP280;61972;19.480;-99.240;2023-01-24T14:23:47;77755.00;;;23.03
73673;BMP280;61972;19.480;-99.240;2023-01-24T14:26:17;77759.09;;;23.02
73673;BMP280;61972;19.480;-99.240;2023-01-24T14:28:49;77767.84;;;23.01
73673;BMP280;61972;19.480;-99.240;2023-01-24T14:31:27;77771.94;;;23.00
73673;BMP280;61972;19.480;-99.240;2023-01-24T14:36:38;77762.81;;;22.96
73673;BMP280;61972;19.480;-99.240;2023-01-24T14:39:24;77766.34;;;22.95
73673;BMP280;61972;19.480;-99.240;2023-01-24T14:44:29;77769.31;;;22.92
73673;BMP280;61972;19.480;-99.240;2023-01-24T14:47:02;77770.78;;;22.91
73673;BMP280;61972;19.480;-99.240;2023-01-24T14:49:44;77773.41;;;22.91
73673;BMP280;61972;19.480;-99.240;2023-01-24T14:52:30;77774.88;;;22.90
73673;BMP280;61972;19.480;-99.240;2023-01-24T14:55:31;77779.00;;;22.89
73673;BMP280;61972;19.480;-99.240;2023-01-24T14:57:54;77773.78;;;22.89
73673;BMP280;61972;19.480;-99.240;2023-01-24T15:00:22;77775.28;;;22.88
73673;BMP280;61972;19.480;-99.240;2023-01-24T15:02:53;77779.34;;;22.87
73673;BMP280;61972;19.480;-99.240;2023-01-24T15:05:37;77776.75;;;22.87
73673;BMP280;61972;19.480;-99.240;2023-01-24T15:08:06;77780.84;;;22.86
73673;BMP280;61972;19.480;-99.240;2023-01-24T15:10:37;77777.13;;;22.85
73673;BMP280;61972;19.480;-99.240;2023-01-24T15:13:23;77770.78;;;22.84
73673;BMP280;61972;19.480;-99.240;2023-01-24T15:15:50;77774.88;;;22.83
73673;BMP280;61972;19.480;-99.240;2023-01-24T15:18:38;77782.13;;;22.83
73673;BMP280;61972;19.480;-99.240;2023-01-24T15:21:12;77772.66;;;22.81
73673;BMP280;61972;19.480;-99.240;2023-01-24T15:23:41;77772.66;;;22.81
73673;BMP280;61972;19.480;-99.240;2023-01-24T15:28:53;77775.25;;;22.81
73673;BMP280;61972;19.480;-99.240;2023-01-24T15:31:22;77784.19;;;22.82
73673;BMP280;61972;19.480;-99.240;2023-01-24T15:33:59;77781.94;;;22.80
73673;BMP280;61972;19.480;-99.240;2023-01-24T15:36:28;77778.44;;;22.82
73673;BMP280;61972;19.480;-99.240;2023-01-24T15:38:57;77782.50;;;22.81
73673;BMP280;61972;19.480;-99.240;2023-01-24T15:41:25;77784.53;;;22.80
73673;BMP280;61972;19.480;-99.240;2023-01-24T15:44:12;77780.81;;;22.79
73673;BMP280;61972;19.480;-99.240;2023-01-24T15:46:40;77779.69;;;22.78
73673;BMP280;61972;19.480;-99.240;2023-01-24T15:49:31;77788.63;;;22.79
73673;BMP280;61972;19.480;-99.240;2023-01-24T15:54:36;77781.38;;;22.80
73673;BMP280;61972;19.480;-99.240;2023-01-24T15:59:43;77781.94;;;22.80
73673;BMP280;61972;19.480;-99.240;2023-01-24T16:02:13;77780.81;;;22.79
73673;BMP280;61972;19.480;-99.240;2023-01-24T16:04:40;77781.38;;;22.80
73673;BMP280;61972;19.480;-99.240;2023-01-24T16:07:06;77772.09;;;22.81
73673;BMP280;61972;19.480;-99.240;2023-01-24T16:09:33;77781.38;;;22.80
73673;BMP280;61972;19.480;-99.240;2023-01-24T16:11:59;77773.56;;;22.80
73673;BMP280;61972;19.480;-99.240;2023-01-24T16:14:26;77776.72;;;22.80
73673;BMP280;61972;19.480;-99.240;2023-01-24T16:16:56;77775.81;;;22.82
73673;BMP280;61972;19.480;-99.240;2023-01-24T16:19:25;77772.09;;;22.81